Sunday, December 16, 2018, 10:30 AM GMT
Back to Local

CYRJ, Roberval, Que.

Location: , , Canada Lat: 48.517
Local Time: 10:30 AM GMT (10:30 GMT) Lon: -72.267
Time Zone: GMT Elev: 587 ft

Show me the last for .
Show Coded

Time T Td Feel RH Dir Speed Gust Alt SLP Vis Weather Sky Remarks
2018-12-16 10:00 28 25 - 86 - Calm - 30.19 30.22 25 OVC018 None
2018-12-16 02:00 32 25 25 74 310° 8 - 30.25 30.28 25 OVC025 None
2018-12-16 01:00 32 27 27 80 280° 5 - 30.24 30.27 25 OVC025 None
2018-12-16 00:00 32 27 27 80 290° 5 - 30.23 30.26 25 OVC028 None
2018-12-15 23:48 32 27 26 80 300° 6 - 30.22 30.26 25 OVC030 None
2018-12-15 23:00 32 28 25 86 280° 8 - 30.23 30.26 20 -SN OVC026 None
2018-12-15 22:05 32 28 24 86 340° 10 - 30.20 30.23 20 -SN OVC023 None
2018-12-15 22:00 34 28 26 80 330° 9 - 30.20 30.23 20 OVC017 None
2018-12-15 21:00 34 28 30 80 280° 5 - 30.17 30.20 25 BKN035 None
2018-12-15 20:00 36 28 29 74 290° 9 - 30.14 30.17 25 BKN039 None
2018-12-15 19:00 34 28 22 80 280° 12 21 30.11 30.14 20 VCSH FEW030 BKN045 None
2018-12-15 18:45 36 30 25 80 290° 13 18 30.11 30.14 25 -SHRA SCT016 BKN036 Pressure rising rapidly
2018-12-15 18:00 37 28 30 69 270° 12 - 30.11 30.14 25 SCT027 BKN052 None
2018-12-15 17:00 37 30 31 74 300° 8 - 30.08 30.11 25 BKN030 BKN050 None
2018-12-15 16:00 36 28 32 74 290° 5 - 30.08 30.11 25 BKN022 BKN030 None
2018-12-15 15:00 36 28 28 74 290° 10 - 30.06 30.09 25 FEW033 BKN059 None
2018-12-15 14:00 36 30 30 80 250° 7 - 30.03 30.06 25 SCT030 BKN043 None
2018-12-15 13:00 34 30 26 86 250° 9 - 30.00 30.03 25 BKN035 None
2018-12-15 12:00 34 30 27 86 250° 8 - 29.96 29.99 25 BKN038 None
2018-12-15 11:28 34 30 24 86 240° 14 - 29.95 29.98 20 OVC038 None
2018-12-15 11:00 34 28 26 80 230° 10 - 29.94 29.97 20 BKN037 None

Support USWX by starting your Amazon purchase here.